createdAt,value
2023-05-07T00:00:50.650Z,101313.06
2023-05-07T00:03:17.217Z,101312.41
2023-05-07T00:05:45.155Z,101317.59
2023-05-07T00:08:12.245Z,101313.91
2023-05-07T00:10:38.752Z,101317.41
2023-05-07T00:13:05.331Z,101320.59
2023-05-07T00:15:31.888Z,101314.91
2023-05-07T00:17:58.399Z,101311.19
2023-05-07T00:20:24.939Z,101309.16
2023-05-07T00:22:52.780Z,101301.13
2023-05-07T00:25:19.472Z,101309.16
2023-05-07T00:27:46.105Z,101307.69
2023-05-07T00:30:13.433Z,101300.84
2023-05-07T00:32:40.119Z,101302.84
2023-05-07T00:35:08.129Z,101287.97
2023-05-07T00:37:34.700Z,101299.84
2023-05-07T00:40:02.685Z,101296.53
2023-05-07T00:42:29.143Z,101293.19
2023-05-07T00:44:55.726Z,101292.53
2023-05-07T00:47:22.411Z,101290.88
2023-05-07T00:49:48.968Z,101287.69
2023-05-07T00:52:18.045Z,101287.91
2023-05-07T00:54:45.292Z,101280.22
2023-05-07T00:57:13.520Z,101284.06
2023-05-07T00:59:40.147Z,101284.41
2023-05-07T01:02:06.663Z,101294.63
2023-05-07T01:04:33.287Z,101291.94
2023-05-07T01:07:02.226Z,101291.63
2023-05-07T01:09:29.706Z,101291.78
2023-05-07T01:11:57.304Z,101283.94
2023-05-07T01:14:25.873Z,101283.94
2023-05-07T01:16:52.573Z,101277.75
2023-05-07T01:19:19.867Z,101282.25
2023-05-07T01:21:49.148Z,101275.56
2023-05-07T01:24:17.159Z,101277.06
2023-05-07T01:26:44.416Z,101267.56
2023-05-07T01:29:11.215Z,101261.38
2023-05-07T01:31:38.760Z,101264.03
2023-05-07T01:34:08.297Z,101265.03
2023-05-07T01:36:35.657Z,101267.72
2023-05-07T01:39:02.790Z,101273.06
2023-05-07T01:41:30.756Z,101270.38
2023-05-07T01:43:59.007Z,101278.06
2023-05-07T01:46:27.469Z,101269.72
2023-05-07T01:48:54.823Z,101265.84
2023-05-07T01:51:21.921Z,101261.16
2023-05-07T01:53:48.642Z,101264.66
2023-05-07T01:56:15.483Z,101260.50
2023-05-07T01:58:43.320Z,101258.84
2023-05-07T02:01:09.812Z,101258.84
2023-05-07T02:03:36.409Z,101257.34
2023-05-07T02:06:03.032Z,101251.66
2023-05-07T02:08:29.966Z,101258.19
2023-05-07T02:10:56.473Z,101259.22
2023-05-07T02:13:23.213Z,101257.34
2023-05-07T02:15:51.178Z,101258.56
2023-05-07T02:18:18.182Z,101256.88
2023-05-07T02:20:44.676Z,101254.22
2023-05-07T02:23:11.141Z,101252.53
2023-05-07T02:25:37.700Z,101249.88
2023-05-07T02:28:04.372Z,101260.56
2023-05-07T02:30:30.859Z,101265.75
2023-05-07T02:32:58.777Z,101266.59
2023-05-07T02:35:25.497Z,101264.25
2023-05-07T02:37:52.045Z,101265.25
2023-05-07T02:40:18.856Z,101269.59
2023-05-07T02:42:45.409Z,101272.25
2023-05-07T02:45:12.063Z,101270.44
2023-05-07T02:47:38.609Z,101269.41
2023-05-07T02:50:08.200Z,101269.25
2023-05-07T02:52:34.713Z,101269.25
2023-05-07T02:55:01.211Z,101269.59
2023-05-07T02:57:27.726Z,101272.59
2023-05-07T02:59:54.238Z,101269.25
2023-05-07T03:02:20.711Z,101262.91
2023-05-07T03:04:47.253Z,101272.75
2023-05-07T03:07:15.108Z,101281.63
2023-05-07T03:09:41.583Z,101284.13
2023-05-07T03:12:08.159Z,101276.94
2023-05-07T03:14:34.663Z,101273.59
2023-05-07T03:17:01.140Z,101270.09
2023-05-07T03:19:27.726Z,101271.09
2023-05-07T03:21:54.269Z,101266.13
2023-05-07T03:24:22.112Z,101258.59
2023-05-07T03:26:48.659Z,101254.41
2023-05-07T03:29:15.174Z,101249.44
2023-05-07T03:31:41.733Z,101240.75
2023-05-07T03:34:08.258Z,101248.94
2023-05-07T03:36:34.755Z,101248.09
2023-05-07T03:39:01.288Z,101248.94
2023-05-07T03:41:29.186Z,101236.56
2023-05-07T03:43:55.687Z,101248.25
2023-05-07T03:46:22.211Z,101248.25
2023-05-07T03:48:48.750Z,101242.59
2023-05-07T03:51:15.229Z,101251.44
2023-05-07T03:53:41.745Z,101249.78
2023-05-07T03:56:08.253Z,101246.09
2023-05-07T03:58:36.156Z,101259.78
2023-05-07T04:01:02.732Z,101270.63
2023-05-07T04:03:29.351Z,101260.94
2023-05-07T04:05:55.905Z,101266.63
2023-05-07T04:08:22.363Z,101263.13
2023-05-07T04:10:48.828Z,101269.47
2023-05-07T04:13:15.408Z,101269.63
2023-05-07T04:15:43.294Z,101277.50
2023-05-07T04:18:09.876Z,101280.16
2023-05-07T04:20:36.365Z,101282.00
2023-05-07T04:23:02.920Z,101273.97
2023-05-07T04:25:29.430Z,101274.81
2023-05-07T04:27:57.963Z,101282.66
2023-05-07T04:30:24.660Z,101278.81
2023-05-07T04:32:52.998Z,101280.47
2023-05-07T04:35:19.838Z,101282.16
2023-05-07T04:37:46.317Z,101274.00
2023-05-07T04:40:13.209Z,101273.00
2023-05-07T04:42:39.907Z,101276.34
2023-05-07T04:45:07.015Z,101279.84
2023-05-07T04:47:33.552Z,101283.81
2023-05-07T04:50:01.414Z,101279.16
2023-05-07T04:52:28.050Z,101283.50
2023-05-07T04:54:54.528Z,101277.81
2023-05-07T04:57:21.010Z,101279.31
2023-05-07T04:59:47.559Z,101281.63
2023-05-07T05:02:14.034Z,101276.94
2023-05-07T05:04:40.556Z,101277.28
2023-05-07T05:07:08.400Z,101276.75
2023-05-07T05:09:34.940Z,101274.56
2023-05-07T05:12:01.403Z,101285.59
2023-05-07T05:14:27.929Z,101287.72
2023-05-07T05:16:54.479Z,101287.22
2023-05-07T05:19:20.979Z,101297.38
2023-05-07T05:21:47.505Z,101299.72
2023-05-07T05:24:15.313Z,101293.03
2023-05-07T05:26:41.827Z,101299.03
2023-05-07T05:29:08.310Z,101302.19
2023-05-07T05:31:34.866Z,101303.88
2023-05-07T05:34:01.358Z,101300.00
2023-05-07T05:36:27.872Z,101298.00
2023-05-07T05:38:54.369Z,101300.31
2023-05-07T05:41:22.193Z,101302.16
2023-05-07T05:43:49.875Z,101304.66
2023-05-07T05:46:16.510Z,101301.81
2023-05-07T05:48:43.080Z,101311.16
2023-05-07T05:51:09.517Z,101311.84
2023-05-07T05:53:36.025Z,101317.31
2023-05-07T05:56:02.594Z,101319.25
2023-05-07T05:58:30.485Z,101317.25
2023-05-07T06:00:56.995Z,101316.75
2023-05-07T06:03:23.724Z,101319.91
2023-05-07T06:05:50.504Z,101310.84
2023-05-07T06:08:16.970Z,101312.34
2023-05-07T06:10:43.483Z,101319.72
2023-05-07T06:13:10.082Z,101307.28
2023-05-07T06:15:37.980Z,101320.78
2023-05-07T06:18:04.574Z,101317.09
2023-05-07T06:20:31.060Z,101319.06
2023-05-07T06:22:57.526Z,101319.53
2023-05-07T06:25:24.002Z,101326.22
2023-05-07T06:27:50.489Z,101320.31
2023-05-07T06:30:16.997Z,101324.78
2023-05-07T06:32:44.916Z,101331.56
2023-05-07T06:35:11.502Z,101330.00
2023-05-07T06:37:39.553Z,101334.00
2023-05-07T06:40:07.270Z,101324.41
2023-05-07T06:42:33.818Z,101324.84
2023-05-07T06:45:00.309Z,101329.50
2023-05-07T06:47:26.896Z,101332.47
2023-05-07T06:49:54.791Z,101328.06
2023-05-07T06:52:21.306Z,101334.53
2023-05-07T06:54:47.828Z,101331.97
2023-05-07T06:57:14.351Z,101336.75
2023-05-07T06:59:40.866Z,101342.28
2023-05-07T07:02:07.439Z,101338.00
2023-05-07T07:04:33.965Z,101343.84
2023-05-07T07:07:01.811Z,101342.00
2023-05-07T07:09:28.322Z,101343.94
2023-05-07T07:11:54.836Z,101345.91
2023-05-07T07:14:21.335Z,101341.81
2023-05-07T07:16:47.863Z,101343.59
2023-05-07T07:19:14.362Z,101350.88
2023-05-07T07:21:40.904Z,101343.75
2023-05-07T07:24:08.814Z,101343.00
2023-05-07T07:26:35.350Z,101349.47
2023-05-07T07:29:01.861Z,101343.38
2023-05-07T07:31:28.378Z,101349.16
2023-05-07T07:33:54.876Z,101345.47
2023-05-07T07:36:22.096Z,101354.19
2023-05-07T07:38:50.027Z,101359.00
2023-05-07T07:41:17.885Z,101355.72
2023-05-07T07:43:44.359Z,101359.91
2023-05-07T07:46:10.862Z,101368.25
2023-05-07T07:48:37.379Z,101364.97
2023-05-07T07:51:04.213Z,101366.94
2023-05-07T07:53:30.758Z,101365.34
2023-05-07T07:55:59.432Z,101365.53
2023-05-07T07:58:27.622Z,101366.16
2023-05-07T08:00:54.201Z,101364.13
2023-05-07T08:03:21.003Z,101368.91
2023-05-07T08:05:47.658Z,101353.63
2023-05-07T08:08:14.162Z,101359.66
2023-05-07T08:10:40.652Z,101361.69
2023-05-07T08:13:07.520Z,101362.53
2023-05-07T08:15:35.665Z,101368.19
2023-05-07T08:18:03.424Z,101357.06
2023-05-07T08:20:30.147Z,101363.03
2023-05-07T08:22:56.751Z,101358.31
2023-05-07T08:25:23.368Z,101366.38
2023-05-07T08:27:49.858Z,101367.66
2023-05-07T08:30:16.709Z,101360.44
2023-05-07T08:32:44.582Z,101367.28
2023-05-07T08:35:11.156Z,101361.31
2023-05-07T08:37:37.635Z,101364.00
2023-05-07T08:40:06.561Z,101375.41
2023-05-07T08:42:36.989Z,101375.69
2023-05-07T08:45:04.950Z,101374.91
2023-05-07T08:47:39.841Z,101378.47
2023-05-07T08:50:09.082Z,101377.53
2023-05-07T08:52:36.468Z,101377.38
2023-05-07T08:55:03.930Z,101371.44
2023-05-07T08:57:30.498Z,101377.69
2023-05-07T08:59:57.172Z,101378.59
2023-05-07T09:02:23.853Z,101386.75
2023-05-07T09:04:50.485Z,101380.75
2023-05-07T09:07:18.528Z,101382.91
2023-05-07T09:09:45.504Z,101384.22
2023-05-07T09:12:12.032Z,101377.25
2023-05-07T09:14:39.072Z,101384.13
2023-05-07T09:17:05.628Z,101381.88
2023-05-07T09:19:32.367Z,101384.81
2023-05-07T09:21:59.443Z,101384.47
2023-05-07T09:24:27.350Z,101378.06
2023-05-07T09:26:53.853Z,101381.59
2023-05-07T09:29:20.323Z,101385.00
2023-05-07T09:31:46.883Z,101380.91
2023-05-07T09:34:13.388Z,101377.19
2023-05-07T09:36:39.959Z,101383.84
2023-05-07T09:39:06.531Z,101378.88
2023-05-07T09:41:44.446Z,101385.78
2023-05-07T09:44:11.058Z,101381.44
2023-05-07T09:46:39.279Z,101385.22
2023-05-07T09:49:10.976Z,101386.03
2023-05-07T09:51:42.494Z,101392.88
2023-05-07T09:54:11.513Z,101388.94
2023-05-07T09:56:40.344Z,101386.03
2023-05-07T09:59:07.853Z,101384.78
2023-05-07T10:01:37.504Z,101390.16
2023-05-07T10:04:04.456Z,101390.56
2023-05-07T10:06:31.683Z,101389.75
2023-05-07T10:08:59.000Z,101391.78
2023-05-07T10:11:25.854Z,101386.16
2023-05-07T10:13:53.957Z,101385.09
2023-05-07T10:16:21.710Z,101385.13
2023-05-07T10:18:48.319Z,101374.97
2023-05-07T10:21:18.229Z,101381.56
2023-05-07T10:23:46.460Z,101384.91
2023-05-07T10:26:15.100Z,101382.19
2023-05-07T10:28:45.668Z,101378.41
2023-05-07T10:31:30.641Z,101378.78
2023-05-07T10:33:58.902Z,101382.16
2023-05-07T10:36:25.760Z,101380.50
2023-05-07T10:38:52.541Z,101387.19
2023-05-07T10:41:19.174Z,101395.09
2023-05-07T10:43:46.501Z,101393.84
2023-05-07T10:46:18.615Z,101391.94
2023-05-07T10:49:09.289Z,101389.56
2023-05-07T10:51:36.345Z,101394.44
2023-05-07T10:54:22.811Z,101389.34
2023-05-07T10:56:49.412Z,101391.34
2023-05-07T10:59:32.463Z,101390.69
2023-05-07T11:02:01.261Z,101384.47
2023-05-07T11:04:27.928Z,101390.72
2023-05-07T11:07:24.755Z,101384.53
2023-05-07T11:10:02.958Z,101383.72
2023-05-07T11:12:54.891Z,101380.81
2023-05-07T11:15:46.149Z,101385.84
2023-05-07T11:18:15.652Z,101382.97
2023-05-07T11:20:53.430Z,101377.50
2023-05-07T11:24:08.560Z,101381.66
2023-05-07T11:26:46.266Z,101384.13
2023-05-07T11:29:14.491Z,101373.22
2023-05-07T11:31:41.283Z,101367.94
2023-05-07T11:34:09.553Z,101376.50
2023-05-07T11:36:41.860Z,101376.31
2023-05-07T11:39:24.248Z,101375.41
2023-05-07T11:41:52.835Z,101378.25
2023-05-07T11:44:20.043Z,101386.47
2023-05-07T11:46:46.726Z,101379.16
2023-05-07T11:49:14.696Z,101384.66
2023-05-07T11:51:41.351Z,101385.16
2023-05-07T11:54:09.521Z,101394.56
2023-05-07T11:56:36.232Z,101385.03
2023-05-07T11:59:02.740Z,101386.97
2023-05-07T12:01:29.247Z,101396.41
2023-05-07T12:03:55.837Z,101385.63
2023-05-07T12:06:23.861Z,101391.50
2023-05-07T12:08:50.364Z,101384.50
2023-05-07T12:11:23.051Z,101378.72
2023-05-07T12:13:49.572Z,101377.69
2023-05-07T12:16:16.643Z,101384.19
2023-05-07T12:18:43.765Z,101391.47
2023-05-07T12:21:10.660Z,101395.03
2023-05-07T12:23:39.287Z,101390.72
2023-05-07T12:26:07.382Z,101394.66
2023-05-07T12:28:38.140Z,101384.47
2023-05-07T12:31:05.221Z,101389.47
2023-05-07T12:33:31.920Z,101391.78
2023-05-07T12:35:58.890Z,101390.53
2023-05-07T12:38:25.448Z,101404.03
2023-05-07T12:40:55.292Z,101414.66
2023-05-07T12:43:25.274Z,101430.88
2023-05-07T12:45:52.917Z,101434.63
2023-05-07T12:48:20.956Z,101455.78
2023-05-07T12:50:50.633Z,101453.81
2023-05-07T12:53:17.738Z,101447.66
2023-05-07T12:55:45.878Z,101445.41
2023-05-07T12:58:17.746Z,101443.69
2023-05-07T13:00:45.227Z,101445.97
2023-05-07T13:03:12.316Z,101468.97
2023-05-07T13:05:39.019Z,101463.31
2023-05-07T13:08:05.601Z,101457.69
2023-05-07T13:10:32.065Z,101481.47
2023-05-07T13:12:58.588Z,101474.19
2023-05-07T13:15:26.478Z,101469.38
2023-05-07T13:17:53.041Z,101468.94
2023-05-07T13:20:19.651Z,101476.59
2023-05-07T13:22:46.186Z,101483.28
2023-05-07T13:25:12.978Z,101487.75
2023-05-07T13:27:39.772Z,101493.75
2023-05-07T13:30:07.434Z,101495.50
2023-05-07T13:32:35.328Z,101495.13
2023-05-07T13:35:02.177Z,101486.50
2023-05-07T13:37:28.786Z,101489.84
2023-05-07T13:39:55.295Z,101496.50
2023-05-07T13:42:21.810Z,101496.50
2023-05-07T13:44:48.307Z,101495.78
2023-05-07T13:47:14.816Z,101503.66
2023-05-07T13:49:42.645Z,101496.16
2023-05-07T13:52:09.118Z,101505.13
2023-05-07T13:54:35.633Z,101501.16
2023-05-07T13:57:02.118Z,101492.56
2023-05-07T13:59:28.573Z,101497.59
2023-05-07T14:01:55.065Z,101502.81
2023-05-07T14:04:21.568Z,101495.59
2023-05-07T14:06:49.396Z,101491.75
2023-05-07T14:09:15.869Z,101491.56
2023-05-07T14:11:42.461Z,101493.47
2023-05-07T14:14:08.968Z,101492.16
2023-05-07T14:16:35.486Z,101484.84
2023-05-07T14:19:02.016Z,101482.44
2023-05-07T14:21:28.638Z,101484.34
2023-05-07T14:23:56.516Z,101487.97
2023-05-07T14:26:22.999Z,101492.13
2023-05-07T14:28:49.628Z,101483.94
2023-05-07T14:31:16.265Z,101489.75
2023-05-07T14:33:42.782Z,101491.44
2023-05-07T14:36:09.326Z,101487.81
2023-05-07T14:38:35.840Z,101494.72
2023-05-07T14:41:03.698Z,101490.41
2023-05-07T14:43:30.231Z,101483.78
2023-05-07T14:45:56.758Z,101481.59
2023-05-07T14:48:23.263Z,101480.94
2023-05-07T14:50:49.789Z,101485.22
2023-05-07T14:53:16.374Z,101486.13
2023-05-07T14:55:43.032Z,101485.59
2023-05-07T14:58:11.568Z,101485.44
2023-05-07T15:00:38.112Z,101486.72
2023-05-07T15:03:07.338Z,101483.06
2023-05-07T15:05:34.030Z,101492.00
2023-05-07T15:08:00.992Z,101497.88
2023-05-07T15:10:27.735Z,101485.91
2023-05-07T15:12:54.339Z,101493.72
2023-05-07T15:15:22.597Z,101489.63
2023-05-07T15:17:49.153Z,101490.44
2023-05-07T15:20:15.729Z,101493.97
2023-05-07T15:22:42.345Z,101500.03
2023-05-07T15:25:10.671Z,101505.06
2023-05-07T15:27:37.441Z,101507.56
2023-05-07T15:30:04.746Z,101509.22
2023-05-07T15:32:32.626Z,101502.78
2023-05-07T15:34:59.206Z,101501.84
2023-05-07T15:37:25.716Z,101504.38
2023-05-07T15:39:52.200Z,101501.81
2023-05-07T15:42:18.739Z,101502.00
2023-05-07T15:44:45.266Z,101508.41
2023-05-07T15:47:11.775Z,101507.63
2023-05-07T15:49:39.554Z,101506.03
2023-05-07T15:52:06.060Z,101513.41
2023-05-07T15:54:32.637Z,101510.59
2023-05-07T15:56:59.120Z,101502.25
2023-05-07T15:59:25.597Z,101502.00
2023-05-07T16:01:52.151Z,101509.59
2023-05-07T16:04:18.669Z,101504.84
2023-05-07T16:06:46.505Z,101499.00
2023-05-07T16:09:13.188Z,101504.16
2023-05-07T16:11:39.770Z,101507.88
2023-05-07T16:14:06.244Z,101497.94
2023-05-07T16:16:33.517Z,101500.88
2023-05-07T16:19:00.487Z,101501.03
2023-05-07T16:21:27.027Z,101507.41
2023-05-07T16:23:54.899Z,101496.19
2023-05-07T16:26:21.435Z,101502.06
2023-05-07T16:28:48.026Z,101506.94
2023-05-07T16:31:14.555Z,101510.63
2023-05-07T16:33:41.160Z,101503.13
2023-05-07T16:36:08.036Z,101508.66
2023-05-07T16:38:34.762Z,101505.97
2023-05-07T16:41:02.854Z,101509.72
2023-05-07T16:43:29.386Z,101504.72
2023-05-07T16:45:55.929Z,101514.97
2023-05-07T16:48:22.556Z,101508.34
2023-05-07T16:50:49.058Z,101518.28
2023-05-07T16:53:15.551Z,101524.69
2023-05-07T16:55:42.089Z,101523.84
2023-05-07T16:58:11.677Z,101528.13
2023-05-07T17:00:49.922Z,101533.97
2023-05-07T17:03:17.664Z,101531.88
2023-05-07T17:05:44.465Z,101536.78
2023-05-07T17:08:11.016Z,101542.28
2023-05-07T17:10:37.550Z,101543.84
2023-05-07T17:13:04.145Z,101540.00
2023-05-07T17:15:32.096Z,101543.69
2023-05-07T17:17:58.654Z,101543.53
2023-05-07T17:20:25.202Z,101552.25
2023-05-07T17:22:51.700Z,101548.44
2023-05-07T17:25:18.412Z,101545.50
2023-05-07T17:27:44.885Z,101559.69
2023-05-07T17:30:12.684Z,101547.91
2023-05-07T17:32:41.025Z,101554.31
2023-05-07T17:35:08.490Z,101557.38
2023-05-07T17:37:35.072Z,101563.59
2023-05-07T17:40:01.888Z,101565.66
2023-05-07T17:42:28.474Z,101563.13
2023-05-07T17:44:54.968Z,101560.63
2023-05-07T17:47:21.463Z,101565.19
2023-05-07T17:49:49.344Z,101562.50
2023-05-07T17:52:15.904Z,101569.34
2023-05-07T17:54:42.368Z,101574.25
2023-05-07T17:57:08.841Z,101566.97
2023-05-07T17:59:35.409Z,101576.69
2023-05-07T18:02:01.982Z,101566.97
2023-05-07T18:04:28.479Z,101573.91
2023-05-07T18:06:56.328Z,101571.44
2023-05-07T18:09:22.852Z,101575.50
2023-05-07T18:11:49.339Z,101577.34
2023-05-07T18:14:15.849Z,101573.16
2023-05-07T18:16:42.480Z,101579.38
2023-05-07T18:19:09.019Z,101586.59
2023-05-07T18:21:35.493Z,101586.78
2023-05-07T18:24:03.385Z,101588.47
2023-05-07T18:26:29.880Z,101596.34
2023-05-07T18:28:56.363Z,101596.53
2023-05-07T18:31:22.947Z,101597.53
2023-05-07T18:33:51.863Z,101600.41
2023-05-07T18:36:18.379Z,101595.78
2023-05-07T18:38:44.865Z,101601.09
2023-05-07T18:41:13.200Z,101601.25
2023-05-07T18:43:39.804Z,101605.50
2023-05-07T18:46:06.351Z,101601.16
2023-05-07T18:48:32.969Z,101610.44
2023-05-07T18:50:59.488Z,101608.25
2023-05-07T18:53:25.974Z,101608.53
2023-05-07T18:55:52.699Z,101607.38
2023-05-07T18:58:20.727Z,101609.63
2023-05-07T19:00:47.523Z,101618.88
2023-05-07T19:03:14.102Z,101624.41
2023-05-07T19:05:40.799Z,101618.56
2023-05-07T19:08:07.262Z,101622.47
2023-05-07T19:10:33.787Z,101625.16
2023-05-07T19:13:00.362Z,101623.84
2023-05-07T19:15:29.466Z,101624.53
2023-05-07T19:17:56.009Z,101626.59
2023-05-07T19:20:22.603Z,101628.81
2023-05-07T19:22:49.141Z,101631.84
2023-05-07T19:25:15.767Z,101631.66
2023-05-07T19:27:42.275Z,101633.34
2023-05-07T19:30:09.454Z,101641.38
2023-05-07T19:32:37.302Z,101636.00
2023-05-07T19:35:04.375Z,101642.22
2023-05-07T19:37:30.850Z,101642.22
2023-05-07T19:39:57.353Z,101649.44
2023-05-07T19:42:23.880Z,101652.13
2023-05-07T19:44:50.328Z,101653.31
2023-05-07T19:47:16.786Z,101664.22
2023-05-07T19:49:44.630Z,101663.59
2023-05-07T19:52:11.306Z,101666.63
2023-05-07T19:54:37.777Z,101672.84
2023-05-07T19:57:04.296Z,101682.25
2023-05-07T19:59:30.765Z,101680.41
2023-05-07T20:01:57.376Z,101674.19
2023-05-07T20:04:24.056Z,101666.13
2023-05-07T20:06:51.890Z,101668.81
2023-05-07T20:09:18.467Z,101666.50
2023-05-07T20:11:44.960Z,101687.16
2023-05-07T20:14:12.938Z,101687.50
2023-05-07T20:16:39.887Z,101685.00
2023-05-07T20:19:06.406Z,101683.97
2023-05-07T20:21:32.938Z,101688.50
2023-05-07T20:24:00.803Z,101694.72
2023-05-07T20:26:27.333Z,101687.69
2023-05-07T20:28:53.986Z,101686.16
2023-05-07T20:31:20.546Z,101687.19
2023-05-07T20:33:47.088Z,101697.25
2023-05-07T20:36:13.573Z,101691.25
2023-05-07T20:38:40.077Z,101694.09
2023-05-07T20:41:08.748Z,101695.94
2023-05-07T20:43:35.739Z,101697.81
2023-05-07T20:46:02.474Z,101696.47
2023-05-07T20:48:29.580Z,101691.44
2023-05-07T20:50:56.980Z,101694.13
2023-05-07T20:53:23.645Z,101688.13
2023-05-07T20:55:50.257Z,101683.94
2023-05-07T20:58:18.209Z,101692.00
2023-05-07T21:00:44.907Z,101689.66
2023-05-07T21:03:11.531Z,101691.84
2023-05-07T21:05:38.079Z,101690.38
2023-05-07T21:08:04.779Z,101689.00
2023-05-07T21:10:31.288Z,101691.00
2023-05-07T21:12:57.830Z,101683.97
2023-05-07T21:15:25.753Z,101685.19
2023-05-07T21:17:52.314Z,101680.81
2023-05-07T21:20:18.934Z,101689.03
2023-05-07T21:22:45.486Z,101679.50
2023-05-07T21:25:13.265Z,101684.19
2023-05-07T21:27:40.119Z,101683.72
2023-05-07T21:30:07.983Z,101694.63
2023-05-07T21:32:35.877Z,101691.44
2023-05-07T21:35:02.429Z,101698.66
2023-05-07T21:37:28.958Z,101703.34
2023-05-07T21:39:55.434Z,101700.66
2023-05-07T21:42:23.220Z,101703.16
2023-05-07T21:44:49.964Z,101705.34
2023-05-07T21:47:16.473Z,101707.56
2023-05-07T21:49:44.363Z,101709.56
2023-05-07T21:52:11.617Z,101705.03
2023-05-07T21:54:38.196Z,101713.59
2023-05-07T21:57:04.835Z,101712.13
2023-05-07T21:59:31.407Z,101710.44
2023-05-07T22:01:58.077Z,101713.97
2023-05-07T22:04:24.752Z,101720.97
2023-05-07T22:06:53.117Z,101720.31
2023-05-07T22:09:19.640Z,101718.97
2023-05-07T22:11:46.222Z,101726.69
2023-05-07T22:14:12.690Z,101730.22
2023-05-07T22:16:39.195Z,101726.69
2023-05-07T22:19:05.775Z,101726.22
2023-05-07T22:21:32.304Z,101728.06
2023-05-07T22:24:00.172Z,101735.25
2023-05-07T22:26:26.719Z,101736.75
2023-05-07T22:28:53.186Z,101732.44
2023-05-07T22:31:19.699Z,101732.44
2023-05-07T22:33:46.215Z,101733.44
2023-05-07T22:36:12.749Z,101726.22
2023-05-07T22:38:39.224Z,101737.13
2023-05-07T22:41:07.077Z,101730.91
2023-05-07T22:43:33.665Z,101736.13
2023-05-07T22:46:01.067Z,101727.41
2023-05-07T22:48:27.766Z,101728.56
2023-05-07T22:50:54.434Z,101719.69
2023-05-07T22:53:21.304Z,101727.22
2023-05-07T22:55:48.009Z,101722.06
2023-05-07T22:58:15.841Z,101715.88
2023-05-07T23:00:42.484Z,101721.56
2023-05-07T23:03:09.213Z,101720.03
2023-05-07T23:05:35.877Z,101714.69
2023-05-07T23:08:02.396Z,101714.69
2023-05-07T23:10:28.879Z,101715.34
2023-05-07T23:12:55.480Z,101718.72
2023-05-07T23:15:23.457Z,101724.06
2023-05-07T23:17:50.036Z,101725.06
2023-05-07T23:20:16.744Z,101732.09
2023-05-07T23:22:43.283Z,101730.44
2023-05-07T23:25:10.173Z,101733.13
2023-05-07T23:27:36.689Z,101736.78
2023-05-07T23:30:03.734Z,101734.13
2023-05-07T23:32:31.971Z,101736.78
2023-05-07T23:34:58.462Z,101734.94
2023-05-07T23:37:25.047Z,101736.78
2023-05-07T23:39:53.351Z,101737.13
2023-05-07T23:42:19.926Z,101737.66
2023-05-07T23:44:46.530Z,101735.97
2023-05-07T23:47:13.044Z,101729.94
2023-05-07T23:49:40.942Z,101735.44
2023-05-07T23:52:07.397Z,101731.09
2023-05-07T23:54:34.347Z,101727.75
2023-05-07T23:57:00.877Z,101726.06
2023-05-07T23:59:27.408Z,101731.25
